sensor_id;sensor_type;location;lat;lon;timestamp;temperature;humidity
37786;DHT22;23625;48.784;9.336;2023-04-24T00:01:16;11.20;99.90
37786;DHT22;23625;48.784;9.336;2023-04-24T00:03:42;11.20;99.90
37786;DHT22;23625;48.784;9.336;2023-04-24T00:06:08;11.10;99.90
37786;DHT22;23625;48.784;9.336;2023-04-24T00:08:37;11.10;99.90
37786;DHT22;23625;48.784;9.336;2023-04-24T00:11:02;11.10;99.90
37786;DHT22;23625;48.784;9.336;2023-04-24T00:13:28;11.10;99.90
37786;DHT22;23625;48.784;9.336;2023-04-24T00:15:55;11.20;99.90
37786;DHT22;23625;48.784;9.336;2023-04-24T00:18:20;11.30;99.90
37786;DHT22;23625;48.784;9.336;2023-04-24T00:20:46;11.20;99.90
37786;DHT22;23625;48.784;9.336;2023-04-24T00:23:12;11.20;99.90
37786;DHT22;23625;48.784;9.336;2023-04-24T00:25:38;11.20;99.90
37786;DHT22;23625;48.784;9.336;2023-04-24T00:28:05;11.10;99.90
37786;DHT22;23625;48.784;9.336;2023-04-24T00:30:31;11.20;99.90
37786;DHT22;23625;48.784;9.336;2023-04-24T00:32:57;11.10;99.90
37786;DHT22;23625;48.784;9.336;2023-04-24T00:35:25;11.10;99.90
37786;DHT22;23625;48.784;9.336;2023-04-24T00:37:51;11.30;99.90
37786;DHT22;23625;48.784;9.336;2023-04-24T00:40:17;11.20;99.90
37786;DHT22;23625;48.784;9.336;2023-04-24T00:42:43;11.10;99.90
37786;DHT22;23625;48.784;9.336;2023-04-24T00:45:10;11.20;99.90
37786;DHT22;23625;48.784;9.336;2023-04-24T00:47:36;11.30;99.90
37786;DHT22;23625;48.784;9.336;2023-04-24T00:50:05;11.20;99.90
37786;DHT22;23625;48.784;9.336;2023-04-24T00:52:31;11.10;99.90
37786;DHT22;23625;48.784;9.336;2023-04-24T00:54:58;11.10;99.90
37786;DHT22;23625;48.784;9.336;2023-04-24T00:57:24;11.10;99.90
37786;DHT22;23625;48.784;9.336;2023-04-24T00:59:51;11.00;99.90
37786;DHT22;23625;48.784;9.336;2023-04-24T01:02:16;11.00;99.90
37786;DHT22;23625;48.784;9.336;2023-04-24T01:04:42;11.00;99.90
37786;DHT22;23625;48.784;9.336;2023-04-24T01:07:08;11.00;99.90
37786;DHT22;23625;48.784;9.336;2023-04-24T01:09:37;11.00;99.90
37786;DHT22;23625;48.784;9.336;2023-04-24T01:12:05;11.00;99.90
37786;DHT22;23625;48.784;9.336;2023-04-24T01:14:31;11.00;99.90
37786;DHT22;23625;48.784;9.336;2023-04-24T01:16:56;11.00;99.90
37786;DHT22;23625;48.784;9.336;2023-04-24T01:19:23;11.00;99.90
37786;DHT22;23625;48.784;9.336;2023-04-24T01:21:50;11.00;99.90
37786;DHT22;23625;48.784;9.336;2023-04-24T01:24:16;11.00;99.90
37786;DHT22;23625;48.784;9.336;2023-04-24T01:26:44;11.00;99.90
37786;DHT22;23625;48.784;9.336;2023-04-24T01:29:09;11.10;99.90
37786;DHT22;23625;48.784;9.336;2023-04-24T01:31:35;11.10;99.90
37786;DHT22;23625;48.784;9.336;2023-04-24T01:34:02;11.10;99.90
37786;DHT22;23625;48.784;9.336;2023-04-24T01:36:28;11.10;99.90
37786;DHT22;23625;48.784;9.336;2023-04-24T01:38:56;11.10;99.90
37786;DHT22;23625;48.784;9.336;2023-04-24T01:41:22;11.10;99.90
37786;DHT22;23625;48.784;9.336;2023-04-24T01:43:49;11.10;99.90
37786;DHT22;23625;48.784;9.336;2023-04-24T01:46:15;11.10;99.90
37786;DHT22;23625;48.784;9.336;2023-04-24T01:48:41;11.10;99.90
37786;DHT22;23625;48.784;9.336;2023-04-24T01:51:07;11.10;99.90
37786;DHT22;23625;48.784;9.336;2023-04-24T01:53:32;11.10;99.90
37786;DHT22;23625;48.784;9.336;2023-04-24T01:55:58;11.00;99.90
37786;DHT22;23625;48.784;9.336;2023-04-24T01:58:24;11.00;99.90
37786;DHT22;23625;48.784;9.336;2023-04-24T02:00:49;11.00;99.90
37786;DHT22;23625;48.784;9.336;2023-04-24T02:03:15;11.00;99.90
37786;DHT22;23625;48.784;9.336;2023-04-24T02:05:44;10.90;99.90
37786;DHT22;23625;48.784;9.336;2023-04-24T02:08:10;10.90;99.90
37786;DHT22;23625;48.784;9.336;2023-04-24T02:10:36;10.90;99.90
37786;DHT22;23625;48.784;9.336;2023-04-24T02:13:01;10.90;99.90
37786;DHT22;23625;48.784;9.336;2023-04-24T02:15:27;10.90;99.90
37786;DHT22;23625;48.784;9.336;2023-04-24T02:17:53;11.00;99.90
37786;DHT22;23625;48.784;9.336;2023-04-24T02:20:19;10.90;99.90
37786;DHT22;23625;48.784;9.336;2023-04-24T02:22:44;10.90;99.90
37786;DHT22;23625;48.784;9.336;2023-04-24T02:25:10;11.10;99.90
37786;DHT22;23625;48.784;9.336;2023-04-24T02:27:36;11.00;99.90
37786;DHT22;23625;48.784;9.336;2023-04-24T02:30:01;11.00;99.90
37786;DHT22;23625;48.784;9.336;2023-04-24T02:32:28;11.00;99.90
37786;DHT22;23625;48.784;9.336;2023-04-24T02:34:54;11.00;99.90
37786;DHT22;23625;48.784;9.336;2023-04-24T02:37:19;11.00;99.90
37786;DHT22;23625;48.784;9.336;2023-04-24T02:39:45;11.00;99.90
37786;DHT22;23625;48.784;9.336;2023-04-24T02:42:10;11.00;99.90
37786;DHT22;23625;48.784;9.336;2023-04-24T02:44:36;11.00;99.90
37786;DHT22;23625;48.784;9.336;2023-04-24T02:47:01;11.00;99.90
37786;DHT22;23625;48.784;9.336;2023-04-24T02:49:27;11.00;99.90
37786;DHT22;23625;48.784;9.336;2023-04-24T02:51:53;11.00;99.90
37786;DHT22;23625;48.784;9.336;2023-04-24T02:54:18;11.10;99.90
37786;DHT22;23625;48.784;9.336;2023-04-24T02:56:44;11.10;99.90
37786;DHT22;23625;48.784;9.336;2023-04-24T02:59:09;11.20;99.90
37786;DHT22;23625;48.784;9.336;2023-04-24T03:01:35;11.10;99.90
37786;DHT22;23625;48.784;9.336;2023-04-24T03:04:01;11.10;99.90
37786;DHT22;23625;48.784;9.336;2023-04-24T03:06:27;11.10;99.90
37786;DHT22;23625;48.784;9.336;2023-04-24T03:08:53;11.10;99.90
37786;DHT22;23625;48.784;9.336;2023-04-24T03:11:19;11.10;99.90
37786;DHT22;23625;48.784;9.336;2023-04-24T03:13:45;11.00;99.90
37786;DHT22;23625;48.784;9.336;2023-04-24T03:16:11;11.00;99.90
37786;DHT22;23625;48.784;9.336;2023-04-24T03:18:36;11.00;99.90
37786;DHT22;23625;48.784;9.336;2023-04-24T03:21:02;11.10;99.90
37786;DHT22;23625;48.784;9.336;2023-04-24T03:23:28;11.00;99.90
37786;DHT22;23625;48.784;9.336;2023-04-24T03:25:54;11.00;99.90
37786;DHT22;23625;48.784;9.336;2023-04-24T03:28:20;10.90;99.90
37786;DHT22;23625;48.784;9.336;2023-04-24T03:30:46;10.90;99.90
37786;DHT22;23625;48.784;9.336;2023-04-24T03:33:11;11.00;99.90
37786;DHT22;23625;48.784;9.336;2023-04-24T03:35:37;11.00;99.90
37786;DHT22;23625;48.784;9.336;2023-04-24T03:38:02;11.00;99.90
37786;DHT22;23625;48.784;9.336;2023-04-24T03:40:29;10.90;99.90
37786;DHT22;23625;48.784;9.336;2023-04-24T03:42:55;11.00;99.90
37786;DHT22;23625;48.784;9.336;2023-04-24T03:45:21;10.80;99.90
37786;DHT22;23625;48.784;9.336;2023-04-24T03:47:46;10.80;99.90
37786;DHT22;23625;48.784;9.336;2023-04-24T03:50:12;10.70;99.90
37786;DHT22;23625;48.784;9.336;2023-04-24T03:52:38;10.70;99.90
37786;DHT22;23625;48.784;9.336;2023-04-24T03:55:03;10.70;99.90
37786;DHT22;23625;48.784;9.336;2023-04-24T03:57:29;10.70;99.90
37786;DHT22;23625;48.784;9.336;2023-04-24T03:59:55;10.70;99.90
37786;DHT22;23625;48.784;9.336;2023-04-24T04:02:21;10.70;99.90
37786;DHT22;23625;48.784;9.336;2023-04-24T04:04:46;10.70;99.90
37786;DHT22;23625;48.784;9.336;2023-04-24T04:07:12;10.60;99.90
37786;DHT22;23625;48.784;9.336;2023-04-24T04:09:38;10.60;99.90
37786;DHT22;23625;48.784;9.336;2023-04-24T04:12:04;10.60;99.90
37786;DHT22;23625;48.784;9.336;2023-04-24T04:14:29;10.60;99.90
37786;DHT22;23625;48.784;9.336;2023-04-24T04:16:55;10.50;99.90
37786;DHT22;23625;48.784;9.336;2023-04-24T04:19:20;10.50;99.90
37786;DHT22;23625;48.784;9.336;2023-04-24T04:21:46;10.50;99.90
37786;DHT22;23625;48.784;9.336;2023-04-24T04:24:17;10.50;99.90
37786;DHT22;23625;48.784;9.336;2023-04-24T04:26:43;10.60;99.90
37786;DHT22;23625;48.784;9.336;2023-04-24T04:29:12;10.60;99.90
37786;DHT22;23625;48.784;9.336;2023-04-24T04:31:38;10.60;99.90
37786;DHT22;23625;48.784;9.336;2023-04-24T04:34:04;10.60;99.90
37786;DHT22;23625;48.784;9.336;2023-04-24T04:36:29;10.70;99.90
37786;DHT22;23625;48.784;9.336;2023-04-24T04:38:55;10.80;99.90
37786;DHT22;23625;48.784;9.336;2023-04-24T04:41:22;10.80;99.90
37786;DHT22;23625;48.784;9.336;2023-04-24T04:43:47;10.90;99.90
37786;DHT22;23625;48.784;9.336;2023-04-24T04:46:13;10.90;99.90
37786;DHT22;23625;48.784;9.336;2023-04-24T04:48:39;10.80;99.90
37786;DHT22;23625;48.784;9.336;2023-04-24T04:51:05;10.70;99.90
37786;DHT22;23625;48.784;9.336;2023-04-24T04:53:30;10.70;99.90
37786;DHT22;23625;48.784;9.336;2023-04-24T04:55:56;10.50;99.90
37786;DHT22;23625;48.784;9.336;2023-04-24T04:58:22;10.60;99.90
37786;DHT22;23625;48.784;9.336;2023-04-24T05:00:48;10.50;99.90
37786;DHT22;23625;48.784;9.336;2023-04-24T05:03:14;10.40;99.90
37786;DHT22;23625;48.784;9.336;2023-04-24T05:05:39;10.40;99.90
37786;DHT22;23625;48.784;9.336;2023-04-24T05:08:09;10.40;99.90
37786;DHT22;23625;48.784;9.336;2023-04-24T05:10:35;10.20;99.90
37786;DHT22;23625;48.784;9.336;2023-04-24T05:13:02;10.30;99.90
37786;DHT22;23625;48.784;9.336;2023-04-24T05:15:28;10.30;99.90
37786;DHT22;23625;48.784;9.336;2023-04-24T05:17:54;10.30;99.90
37786;DHT22;23625;48.784;9.336;2023-04-24T05:20:19;10.10;99.90
37786;DHT22;23625;48.784;9.336;2023-04-24T05:22:45;10.10;99.90
37786;DHT22;23625;48.784;9.336;2023-04-24T05:25:11;10.10;99.90
37786;DHT22;23625;48.784;9.336;2023-04-24T05:27:38;10.00;99.90
37786;DHT22;23625;48.784;9.336;2023-04-24T05:30:04;10.10;99.90
37786;DHT22;23625;48.784;9.336;2023-04-24T05:32:30;10.00;99.90
37786;DHT22;23625;48.784;9.336;2023-04-24T05:34:55;10.00;99.90
37786;DHT22;23625;48.784;9.336;2023-04-24T05:37:21;9.90;99.90
37786;DHT22;23625;48.784;9.336;2023-04-24T05:39:47;9.90;99.90
37786;DHT22;23625;48.784;9.336;2023-04-24T05:42:12;9.90;99.90
37786;DHT22;23625;48.784;9.336;2023-04-24T05:44:38;9.90;99.90
37786;DHT22;23625;48.784;9.336;2023-04-24T05:47:03;9.90;99.90
37786;DHT22;23625;48.784;9.336;2023-04-24T05:49:29;9.90;99.90
37786;DHT22;23625;48.784;9.336;2023-04-24T05:51:55;9.90;99.90
37786;DHT22;23625;48.784;9.336;2023-04-24T05:54:20;9.90;99.90
37786;DHT22;23625;48.784;9.336;2023-04-24T05:56:46;9.90;99.90
37786;DHT22;23625;48.784;9.336;2023-04-24T05:59:12;10.00;99.90
37786;DHT22;23625;48.784;9.336;2023-04-24T06:01:37;9.90;99.90
37786;DHT22;23625;48.784;9.336;2023-04-24T06:04:03;10.00;99.90
37786;DHT22;23625;48.784;9.336;2023-04-24T06:06:29;10.00;99.90
37786;DHT22;23625;48.784;9.336;2023-04-24T06:08:54;10.00;99.90
37786;DHT22;23625;48.784;9.336;2023-04-24T06:11:21;10.00;99.90
37786;DHT22;23625;48.784;9.336;2023-04-24T06:13:46;10.10;99.90
37786;DHT22;23625;48.784;9.336;2023-04-24T06:16:12;10.20;99.90
37786;DHT22;23625;48.784;9.336;2023-04-24T06:18:37;10.20;99.90
37786;DHT22;23625;48.784;9.336;2023-04-24T06:21:04;10.20;99.90
37786;DHT22;23625;48.784;9.336;2023-04-24T06:23:30;10.20;99.90
37786;DHT22;23625;48.784;9.336;2023-04-24T06:25:58;10.20;99.90
37786;DHT22;23625;48.784;9.336;2023-04-24T06:28:23;10.20;99.90
37786;DHT22;23625;48.784;9.336;2023-04-24T06:30:49;10.30;99.90
37786;DHT22;23625;48.784;9.336;2023-04-24T06:33:16;10.40;99.90
37786;DHT22;23625;48.784;9.336;2023-04-24T06:35:41;10.50;99.90
37786;DHT22;23625;48.784;9.336;2023-04-24T06:38:07;10.60;99.90
37786;DHT22;23625;48.784;9.336;2023-04-24T06:40:32;10.70;99.90
37786;DHT22;23625;48.784;9.336;2023-04-24T06:42:58;11.00;99.90
37786;DHT22;23625;48.784;9.336;2023-04-24T06:45:25;11.10;99.90
37786;DHT22;23625;48.784;9.336;2023-04-24T06:47:51;11.30;99.90
37786;DHT22;23625;48.784;9.336;2023-04-24T06:50:16;11.40;99.90
37786;DHT22;23625;48.784;9.336;2023-04-24T06:52:42;11.40;99.90
37786;DHT22;23625;48.784;9.336;2023-04-24T06:55:08;11.60;99.90
37786;DHT22;23625;48.784;9.336;2023-04-24T06:57:34;11.60;99.90
37786;DHT22;23625;48.784;9.336;2023-04-24T06:59:59;11.80;99.90
37786;DHT22;23625;48.784;9.336;2023-04-24T07:02:25;11.80;99.90
37786;DHT22;23625;48.784;9.336;2023-04-24T07:04:51;11.90;99.90
37786;DHT22;23625;48.784;9.336;2023-04-24T07:07:18;11.90;99.90
37786;DHT22;23625;48.784;9.336;2023-04-24T07:09:43;12.10;99.90
37786;DHT22;23625;48.784;9.336;2023-04-24T07:12:11;12.10;99.90
37786;DHT22;23625;48.784;9.336;2023-04-24T07:14:37;12.20;99.90
37786;DHT22;23625;48.784;9.336;2023-04-24T07:17:04;12.20;99.90
37786;DHT22;23625;48.784;9.336;2023-04-24T07:19:30;12.30;99.90
37786;DHT22;23625;48.784;9.336;2023-04-24T07:21:55;12.30;99.90
37786;DHT22;23625;48.784;9.336;2023-04-24T07:24:24;12.20;99.90
37786;DHT22;23625;48.784;9.336;2023-04-24T07:26:51;12.00;99.90
37786;DHT22;23625;48.784;9.336;2023-04-24T07:29:17;11.90;99.90
37786;DHT22;23625;48.784;9.336;2023-04-24T07:31:42;11.90;99.90
37786;DHT22;23625;48.784;9.336;2023-04-24T07:34:08;11.90;99.90
37786;DHT22;23625;48.784;9.336;2023-04-24T07:36:33;11.80;99.90
37786;DHT22;23625;48.784;9.336;2023-04-24T07:38:59;11.80;99.90
37786;DHT22;23625;48.784;9.336;2023-04-24T07:41:25;11.80;99.90
37786;DHT22;23625;48.784;9.336;2023-04-24T07:43:50;11.90;99.90
37786;DHT22;23625;48.784;9.336;2023-04-24T07:46:16;12.00;99.90
37786;DHT22;23625;48.784;9.336;2023-04-24T07:48:42;12.00;99.90
37786;DHT22;23625;48.784;9.336;2023-04-24T07:51:08;12.10;99.70
37786;DHT22;23625;48.784;9.336;2023-04-24T07:53:35;12.20;99.90
37786;DHT22;23625;48.784;9.336;2023-04-24T07:56:01;12.40;90.90
37786;DHT22;23625;48.784;9.336;2023-04-24T07:58:26;12.60;92.60
37786;DHT22;23625;48.784;9.336;2023-04-24T08:00:52;12.80;93.10
37786;DHT22;23625;48.784;9.336;2023-04-24T08:03:17;12.80;88.10
37786;DHT22;23625;48.784;9.336;2023-04-24T08:05:45;12.90;90.60
37786;DHT22;23625;48.784;9.336;2023-04-24T08:08:10;13.00;94.20
37786;DHT22;23625;48.784;9.336;2023-04-24T08:10:36;13.00;86.20
37786;DHT22;23625;48.784;9.336;2023-04-24T08:13:02;12.80;85.20
37786;DHT22;23625;48.784;9.336;2023-04-24T08:15:28;12.70;81.10
37786;DHT22;23625;48.784;9.336;2023-04-24T08:17:53;12.70;84.20
37786;DHT22;23625;48.784;9.336;2023-04-24T08:20:19;12.80;83.20
37786;DHT22;23625;48.784;9.336;2023-04-24T08:22:44;13.00;78.10
37786;DHT22;23625;48.784;9.336;2023-04-24T08:25:12;13.10;80.40
37786;DHT22;23625;48.784;9.336;2023-04-24T08:27:38;13.10;80.20
37786;DHT22;23625;48.784;9.336;2023-04-24T08:30:05;12.90;77.70
37786;DHT22;23625;48.784;9.336;2023-04-24T08:32:31;12.80;75.70
37786;DHT22;23625;48.784;9.336;2023-04-24T08:34:57;12.80;76.60
37786;DHT22;23625;48.784;9.336;2023-04-24T08:37:23;12.90;75.20
37786;DHT22;23625;48.784;9.336;2023-04-24T08:39:50;12.80;75.50
37786;DHT22;23625;48.784;9.336;2023-04-24T08:42:17;12.80;73.20
37786;DHT22;23625;48.784;9.336;2023-04-24T08:44:43;12.90;74.20
37786;DHT22;23625;48.784;9.336;2023-04-24T08:47:10;12.80;72.90
37786;DHT22;23625;48.784;9.336;2023-04-24T08:49:37;12.70;75.00
37786;DHT22;23625;48.784;9.336;2023-04-24T08:52:03;12.70;76.30
37786;DHT22;23625;48.784;9.336;2023-04-24T08:54:31;12.60;77.30
37786;DHT22;23625;48.784;9.336;2023-04-24T08:56:59;12.70;76.30
37786;DHT22;23625;48.784;9.336;2023-04-24T08:59:29;12.60;74.70
37786;DHT22;23625;48.784;9.336;2023-04-24T09:01:56;12.60;76.00
37786;DHT22;23625;48.784;9.336;2023-04-24T09:04:22;12.60;77.70
37786;DHT22;23625;48.784;9.336;2023-04-24T09:06:56;12.50;74.30
37786;DHT22;23625;48.784;9.336;2023-04-24T09:09:24;12.40;77.40
37786;DHT22;23625;48.784;9.336;2023-04-24T09:11:50;12.30;76.20
37786;DHT22;23625;48.784;9.336;2023-04-24T09:14:17;12.20;82.60
37786;DHT22;23625;48.784;9.336;2023-04-24T09:16:42;12.30;78.80
37786;DHT22;23625;48.784;9.336;2023-04-24T09:19:08;12.30;79.50
37786;DHT22;23625;48.784;9.336;2023-04-24T09:21:34;12.40;81.00
37786;DHT22;23625;48.784;9.336;2023-04-24T09:24:05;12.40;78.70
37786;DHT22;23625;48.784;9.336;2023-04-24T09:26:33;12.30;81.20
37786;DHT22;23625;48.784;9.336;2023-04-24T09:29:00;12.20;83.60
37786;DHT22;23625;48.784;9.336;2023-04-24T09:31:27;12.20;85.90
37786;DHT22;23625;48.784;9.336;2023-04-24T09:34:04;12.10;86.10
37786;DHT22;23625;48.784;9.336;2023-04-24T09:36:38;12.00;88.10
37786;DHT22;23625;48.784;9.336;2023-04-24T09:39:14;11.80;90.30
37786;DHT22;23625;48.784;9.336;2023-04-24T09:44:25;11.70;92.90
37786;DHT22;23625;48.784;9.336;2023-04-24T09:49:26;11.80;92.60
37786;DHT22;23625;48.784;9.336;2023-04-24T09:52:06;11.90;94.50
37786;DHT22;23625;48.784;9.336;2023-04-24T09:54:32;11.90;94.70
37786;DHT22;23625;48.784;9.336;2023-04-24T09:56:58;12.10;96.70
37786;DHT22;23625;48.784;9.336;2023-04-24T09:59:25;12.30;93.90
37786;DHT22;23625;48.784;9.336;2023-04-24T10:01:51;12.50;88.20
37786;DHT22;23625;48.784;9.336;2023-04-24T10:04:25;12.70;86.70
37786;DHT22;23625;48.784;9.336;2023-04-24T10:06:53;12.70;87.50
37786;DHT22;23625;48.784;9.336;2023-04-24T10:09:20;12.50;84.00
37786;DHT22;23625;48.784;9.336;2023-04-24T10:11:48;12.30;83.30
37786;DHT22;23625;48.784;9.336;2023-04-24T10:14:18;12.20;84.50
37786;DHT22;23625;48.784;9.336;2023-04-24T10:16:45;12.20;82.10
37786;DHT22;23625;48.784;9.336;2023-04-24T10:19:14;12.20;85.20
37786;DHT22;23625;48.784;9.336;2023-04-24T10:21:42;12.20;78.60
37786;DHT22;23625;48.784;9.336;2023-04-24T10:24:13;12.20;84.20
37786;DHT22;23625;48.784;9.336;2023-04-24T10:26:40;12.40;83.40
37786;DHT22;23625;48.784;9.336;2023-04-24T10:29:06;12.50;73.40
37786;DHT22;23625;48.784;9.336;2023-04-24T10:31:36;12.30;69.60
37786;DHT22;23625;48.784;9.336;2023-04-24T10:34:02;12.40;67.10
37786;DHT22;23625;48.784;9.336;2023-04-24T10:36:30;12.50;67.00
37786;DHT22;23625;48.784;9.336;2023-04-24T10:39:00;13.00;69.10
37786;DHT22;23625;48.784;9.336;2023-04-24T10:41:26;13.70;65.40
37786;DHT22;23625;48.784;9.336;2023-04-24T10:44:08;14.10;64.10
37786;DHT22;23625;48.784;9.336;2023-04-24T10:46:35;14.40;61.10
37786;DHT22;23625;48.784;9.336;2023-04-24T10:49:06;14.00;60.00
37786;DHT22;23625;48.784;9.336;2023-04-24T10:54:41;13.70;59.40
37786;DHT22;23625;48.784;9.336;2023-04-24T10:59:49;13.30;61.20
37786;DHT22;23625;48.784;9.336;2023-04-24T11:02:15;13.10;62.30
37786;DHT22;23625;48.784;9.336;2023-04-24T11:04:41;12.90;63.10
37786;DHT22;23625;48.784;9.336;2023-04-24T11:07:09;12.80;64.60
37786;DHT22;23625;48.784;9.336;2023-04-24T11:09:35;12.80;66.10
37786;DHT22;23625;48.784;9.336;2023-04-24T11:12:08;12.80;64.70
37786;DHT22;23625;48.784;9.336;2023-04-24T11:20:05;12.60;66.50
37786;DHT22;23625;48.784;9.336;2023-04-24T11:22:33;12.60;67.70
37786;DHT22;23625;48.784;9.336;2023-04-24T11:25:01;12.60;67.90
37786;DHT22;23625;48.784;9.336;2023-04-24T11:27:38;12.50;67.40
37786;DHT22;23625;48.784;9.336;2023-04-24T11:30:04;12.50;68.60
37786;DHT22;23625;48.784;9.336;2023-04-24T11:34:59;12.50;70.80
37786;DHT22;23625;48.784;9.336;2023-04-24T11:37:28;12.60;69.00
37786;DHT22;23625;48.784;9.336;2023-04-24T11:39:56;12.60;68.80
37786;DHT22;23625;48.784;9.336;2023-04-24T11:42:22;12.60;69.50
37786;DHT22;23625;48.784;9.336;2023-04-24T11:44:50;12.80;70.60
37786;DHT22;23625;48.784;9.336;2023-04-24T11:47:17;13.10;70.30
37786;DHT22;23625;48.784;9.336;2023-04-24T11:49:42;13.20;68.20
37786;DHT22;23625;48.784;9.336;2023-04-24T11:52:08;13.30;69.90
37786;DHT22;23625;48.784;9.336;2023-04-24T11:54:33;13.30;65.40
37786;DHT22;23625;48.784;9.336;2023-04-24T11:56:59;13.30;65.30
37786;DHT22;23625;48.784;9.336;2023-04-24T11:59:29;13.10;64.70
37786;DHT22;23625;48.784;9.336;2023-04-24T12:01:54;12.80;65.50
37786;DHT22;23625;48.784;9.336;2023-04-24T12:04:20;12.80;66.20
37786;DHT22;23625;48.784;9.336;2023-04-24T12:07:02;12.70;67.10
37786;DHT22;23625;48.784;9.336;2023-04-24T12:09:43;12.60;67.00
37786;DHT22;23625;48.784;9.336;2023-04-24T12:12:15;12.40;68.50
37786;DHT22;23625;48.784;9.336;2023-04-24T12:14:48;12.40;69.80
37786;DHT22;23625;48.784;9.336;2023-04-24T12:17:23;12.60;69.90
37786;DHT22;23625;48.784;9.336;2023-04-24T12:19:49;12.70;68.70
37786;DHT22;23625;48.784;9.336;2023-04-24T12:22:16;12.80;68.80
37786;DHT22;23625;48.784;9.336;2023-04-24T12:24:58;13.00;68.70
37786;DHT22;23625;48.784;9.336;2023-04-24T12:27:25;13.30;67.00
37786;DHT22;23625;48.784;9.336;2023-04-24T12:29:56;13.70;66.90
37786;DHT22;23625;48.784;9.336;2023-04-24T12:32:22;13.30;67.40
37786;DHT22;23625;48.784;9.336;2023-04-24T12:34:49;13.30;66.00
37786;DHT22;23625;48.784;9.336;2023-04-24T12:37:19;13.20;67.40
37786;DHT22;23625;48.784;9.336;2023-04-24T12:40:10;13.00;66.60
37786;DHT22;23625;48.784;9.336;2023-04-24T12:42:45;12.80;67.50
37786;DHT22;23625;48.784;9.336;2023-04-24T12:45:11;12.80;68.30
37786;DHT22;23625;48.784;9.336;2023-04-24T12:47:38;12.70;69.50
37786;DHT22;23625;48.784;9.336;2023-04-24T12:50:06;12.70;69.20
37786;DHT22;23625;48.784;9.336;2023-04-24T12:52:32;12.70;68.60
37786;DHT22;23625;48.784;9.336;2023-04-24T12:54:59;12.70;68.60
37786;DHT22;23625;48.784;9.336;2023-04-24T12:57:26;12.70;69.90
37786;DHT22;23625;48.784;9.336;2023-04-24T12:59:56;12.80;69.20
37786;DHT22;23625;48.784;9.336;2023-04-24T13:02:27;12.90;66.30
37786;DHT22;23625;48.784;9.336;2023-04-24T13:04:54;12.90;67.00
37786;DHT22;23625;48.784;9.336;2023-04-24T13:07:20;12.90;67.50
37786;DHT22;23625;48.784;9.336;2023-04-24T13:09:48;12.90;66.20
37786;DHT22;23625;48.784;9.336;2023-04-24T13:12:14;12.80;68.30
37786;DHT22;23625;48.784;9.336;2023-04-24T13:14:40;12.70;68.20
37786;DHT22;23625;48.784;9.336;2023-04-24T13:17:05;12.70;66.70
37786;DHT22;23625;48.784;9.336;2023-04-24T13:19:37;12.60;67.70
37786;DHT22;23625;48.784;9.336;2023-04-24T13:22:03;12.40;70.40
37786;DHT22;23625;48.784;9.336;2023-04-24T13:24:29;12.40;75.30
37786;DHT22;23625;48.784;9.336;2023-04-24T13:26:55;12.20;87.40
37786;DHT22;23625;48.784;9.336;2023-04-24T13:29:22;11.70;99.90
37786;DHT22;23625;48.784;9.336;2023-04-24T13:31:50;11.60;99.90
37786;DHT22;23625;48.784;9.336;2023-04-24T13:34:19;11.90;99.90
37786;DHT22;23625;48.784;9.336;2023-04-24T13:36:44;12.20;99.90
37786;DHT22;23625;48.784;9.336;2023-04-24T13:39:10;12.60;99.90
37786;DHT22;23625;48.784;9.336;2023-04-24T13:41:36;12.80;99.90
37786;DHT22;23625;48.784;9.336;2023-04-24T13:44:05;12.90;99.90
37786;DHT22;23625;48.784;9.336;2023-04-24T13:46:31;13.00;98.20
37786;DHT22;23625;48.784;9.336;2023-04-24T13:48:57;13.30;97.80
37786;DHT22;23625;48.784;9.336;2023-04-24T13:51:25;13.30;91.30
37786;DHT22;23625;48.784;9.336;2023-04-24T13:53:52;13.00;93.10
37786;DHT22;23625;48.784;9.336;2023-04-24T13:56:18;12.90;93.50
37786;DHT22;23625;48.784;9.336;2023-04-24T13:58:44;13.00;93.50
37786;DHT22;23625;48.784;9.336;2023-04-24T14:01:09;12.80;91.40
37786;DHT22;23625;48.784;9.336;2023-04-24T14:03:37;12.60;90.40
37786;DHT22;23625;48.784;9.336;2023-04-24T14:06:02;12.50;92.70
37786;DHT22;23625;48.784;9.336;2023-04-24T14:08:28;12.20;97.30
37786;DHT22;23625;48.784;9.336;2023-04-24T14:10:54;12.10;99.90
37786;DHT22;23625;48.784;9.336;2023-04-24T14:13:20;11.60;99.90
37786;DHT22;23625;48.784;9.336;2023-04-24T14:15:46;11.30;99.90
37786;DHT22;23625;48.784;9.336;2023-04-24T14:18:11;11.10;99.90
37786;DHT22;23625;48.784;9.336;2023-04-24T14:20:37;10.90;99.90
37786;DHT22;23625;48.784;9.336;2023-04-24T14:23:03;11.00;99.90
37786;DHT22;23625;48.784;9.336;2023-04-24T14:25:30;11.00;99.90
37786;DHT22;23625;48.784;9.336;2023-04-24T14:27:55;11.20;99.90
37786;DHT22;23625;48.784;9.336;2023-04-24T14:30:21;11.40;99.90
37786;DHT22;23625;48.784;9.336;2023-04-24T14:32:48;11.50;99.90
37786;DHT22;23625;48.784;9.336;2023-04-24T14:35:16;11.50;99.90
37786;DHT22;23625;48.784;9.336;2023-04-24T14:37:42;11.70;99.90
37786;DHT22;23625;48.784;9.336;2023-04-24T14:40:08;11.90;99.90
37786;DHT22;23625;48.784;9.336;2023-04-24T14:42:34;12.00;99.90
37786;DHT22;23625;48.784;9.336;2023-04-24T14:45:00;12.10;99.90
37786;DHT22;23625;48.784;9.336;2023-04-24T14:47:26;12.20;99.90
37786;DHT22;23625;48.784;9.336;2023-04-24T14:49:52;12.20;99.90
37786;DHT22;23625;48.784;9.336;2023-04-24T14:52:17;12.30;94.90
37786;DHT22;23625;48.784;9.336;2023-04-24T14:54:43;12.30;99.90
37786;DHT22;23625;48.784;9.336;2023-04-24T14:57:09;12.30;96.20
37786;DHT22;23625;48.784;9.336;2023-04-24T14:59:35;12.20;90.30
37786;DHT22;23625;48.784;9.336;2023-04-24T15:02:01;12.10;92.00
37786;DHT22;23625;48.784;9.336;2023-04-24T15:04:27;12.10;96.10
37786;DHT22;23625;48.784;9.336;2023-04-24T15:06:54;12.10;91.80
37786;DHT22;23625;48.784;9.336;2023-04-24T15:09:21;12.10;91.00
37786;DHT22;23625;48.784;9.336;2023-04-24T15:11:47;12.10;98.50
37786;DHT22;23625;48.784;9.336;2023-04-24T15:14:12;12.30;97.20
37786;DHT22;23625;48.784;9.336;2023-04-24T15:16:38;12.70;95.10
37786;DHT22;23625;48.784;9.336;2023-04-24T15:19:04;13.10;86.30
37786;DHT22;23625;48.784;9.336;2023-04-24T15:21:29;13.20;92.80
37786;DHT22;23625;48.784;9.336;2023-04-24T15:23:56;13.20;89.50
37786;DHT22;23625;48.784;9.336;2023-04-24T15:26:23;13.10;80.80
37786;DHT22;23625;48.784;9.336;2023-04-24T15:28:49;13.00;81.00
37786;DHT22;23625;48.784;9.336;2023-04-24T15:31:14;12.80;78.50
37786;DHT22;23625;48.784;9.336;2023-04-24T15:33:40;12.60;79.40
37786;DHT22;23625;48.784;9.336;2023-04-24T15:36:06;12.60;80.20
37786;DHT22;23625;48.784;9.336;2023-04-24T15:38:32;12.40;85.20
37786;DHT22;23625;48.784;9.336;2023-04-24T15:40:57;12.40;81.40
37786;DHT22;23625;48.784;9.336;2023-04-24T15:43:23;12.30;82.20
37786;DHT22;23625;48.784;9.336;2023-04-24T15:45:58;12.20;85.70
37786;DHT22;23625;48.784;9.336;2023-04-24T15:48:23;12.20;90.60